Airport View

Enter AWOS ICAO identifier for current METAR.

ex. KFNL

KMCW 080753Z AUTO 19003KT 6SM BR CLR 05/04 A2972 RMK AO2 SLP058 T00500039

8 Apr 2020 08:19

Frequency: 120.300

Phone: 641-357-8490

Other Area AWOS: KFXY - KHPT - KCAV - KAEL

TAF KMCW 080535Z 0806/0906 VRB04KT P6SM FEW200 FM081400 32011G18KT P6SM VCSH BKN080 OVC120 FM081700 34017G28KT P6SM VCSH BKN060 OVC090 FM082100 32018G30KT P6SM SCT080 BKN120 FM090300 30011G17KT P6SM FEW200